Time;durP1;ratioP1;P1;durP2;ratioP2;P2;SDS_P1;SDS_P2;PMS_P1;PMS_P2;Temp;Humidity;BMP_temperature;BMP_pressure;BME280_temperature;BME280_humidity;BME280_pressure;Samples;Min_cycle;Max_cycle;Signal;HPM_P1;HPM_P2
2022/09/04 00:01:44;;;;;;;12.37;8.70;;;;;;;17.56;94.56;95267.06;5033708;28;20485;-82
2022/09/04 00:04:17;;;;;;;11.50;9.00;;;;;;;17.52;94.74;95278.19;5031663;28;20524;-82
2022/09/04 00:06:57;;;;;;;11.30;8.10;;;;;;;17.54;94.24;95276.19;5033884;28;20462;-82
2022/09/04 00:09:32;;;;;;;15.40;8.50;;;;;;;17.54;94.30;95276.19;5033910;28;20864;-82
2022/09/04 00:12:04;;;;;;;11.17;8.67;;;;;;;17.53;94.26;95279.84;5033452;28;20486;-82
2022/09/04 00:14:40;;;;;;;12.13;8.33;;;;;;;17.49;94.87;95291.78;5034088;28;20474;-82
2022/09/04 00:17:14;;;;;;;17.70;9.37;;;;;;;17.46;94.71;95290.28;5033335;28;20462;-81
2022/09/04 00:19:45;;;;;;;10.33;8.90;;;;;;;17.43;94.55;95279.16;5031495;28;20443;-81
2022/09/04 00:22:25;;;;;;;9.37;7.43;;;;;;;17.49;94.43;95286.47;5033542;28;20503;-81
2022/09/04 00:25:03;;;;;;;15.87;8.60;;;;;;;17.46;94.56;95289.44;5033261;28;20446;-82
2022/09/04 00:27:43;;;;;;;14.73;9.20;;;;;;;17.43;94.48;95287.94;5032787;28;20446;-83
2022/09/04 00:30:13;;;;;;;10.50;8.23;;;;;;;17.40;94.31;95287.44;5033522;28;20476;-82
2022/09/04 00:32:44;;;;;;;9.40;8.20;;;;;;;17.43;94.15;95293.25;5033538;28;20490;-81
2022/09/04 00:35:16;;;;;;;12.70;8.53;;;;;;;17.40;94.37;95293.59;5033269;28;20470;-82
2022/09/04 00:37:48;;;;;;;14.23;8.83;;;;;;;17.42;94.08;95299.56;5033024;28;20819;-83
2022/09/04 00:40:25;;;;;;;8.80;7.90;;;;;;;17.38;93.64;95292.09;5033386;28;20458;-82
2022/09/04 00:43:24;;;;;;;9.80;8.80;;;;;;;17.37;93.76;95291.25;5033133;28;20450;-83
2022/09/04 00:46:05;;;;;;;15.20;8.27;;;;;;;17.40;93.79;95288.28;4971886;28;20457;-82
2022/09/04 00:49:02;;;;;;;9.07;8.17;;;;;;;17.42;94.04;95293.41;4971902;28;20453;-82
2022/09/04 00:51:39;;;;;;;9.57;7.07;;;;;;;17.37;94.11;95301.03;4914447;29;20487;-82
2022/09/04 00:54:34;;;;;;;9.20;8.30;;;;;;;17.42;94.25;95293.41;4917554;29;20550;-81
2022/09/04 00:57:44;;;;;;;12.50;8.90;;;;;;;17.32;93.76;95290.88;4918571;29;20532;-81
2022/09/04 01:00:14;;;;;;;11.27;9.20;;;;;;;17.03;95.16;95286.81;4862477;29;20525;-82
2022/09/04 01:03:03;;;;;;;13.90;9.60;;;;;;;16.95;95.91;95293.91;4862274;29;20507;-81
2022/09/04 01:05:51;;;;;;;13.80;10.60;;;;;;;16.88;96.68;95293.72;4862202;29;20486;-81
2022/09/04 01:08:34;;;;;;;10.17;8.83;;;;;;;16.93;97.20;95285.28;4862118;29;20910;-82
2022/09/04 01:11:13;;;;;;;12.97;9.93;;;;;;;16.89;96.94;95286.59;4862117;29;20454;-81
2022/09/04 01:13:45;;;;;;;10.80;9.27;;;;;;;16.94;97.32;95293.06;4862258;29;20475;-82
2022/09/04 01:16:20;;;;;;;14.23;9.47;;;;;;;16.95;97.14;95291.25;4846394;29;20462;-81
2022/09/04 01:18:55;;;;;;;13.30;9.67;;;;;;;16.99;96.81;95295.25;4832627;29;20458;-82
2022/09/04 01:21:47;;;;;;;10.80;9.70;;;;;;;17.01;96.50;95301.22;4861910;29;20468;-82
2022/09/04 01:24:31;;;;;;;11.70;9.73;;;;;;;17.01;95.84;95296.75;4898480;29;20463;-81
2022/09/04 01:27:05;;;;;;;11.13;9.90;;;;;;;16.97;96.43;95295.41;4899424;29;20543;-83
2022/09/04 01:29:44;;;;;;;13.63;8.60;;;;;;;16.99;96.11;95290.78;4984009;28;20444;-80
2022/09/04 01:32:24;;;;;;;11.43;7.97;;;;;;;16.98;96.25;95290.94;4994784;28;20488;-81
2022/09/04 01:35:04;;;;;;;13.40;7.97;;;;;;;16.96;95.77;95282.31;4962235;28;20579;-81
2022/09/04 01:37:41;;;;;;;8.93;7.80;;;;;;;16.97;95.92;95276.00;5025136;28;20469;-81
2022/09/04 01:40:22;;;;;;;13.53;7.77;;;;;;;16.92;95.80;95270.38;5036538;28;20450;-81
2022/09/04 01:42:56;;;;;;;8.27;7.47;;;;;;;16.90;95.29;95267.06;5036375;28;20838;-80
2022/09/04 01:45:33;;;;;;;9.10;7.50;;;;;;;16.89;95.16;95268.03;5036414;28;20442;-82
2022/09/04 01:48:06;;;;;;;10.67;8.23;;;;;;;16.85;95.05;95264.88;5036341;28;20447;-82
2022/09/04 01:50:36;;;;;;;8.40;7.60;;;;;;;16.78;95.66;95263.03;5036549;28;20512;-82
2022/09/04 01:53:10;;;;;;;8.43;7.70;;;;;;;16.73;95.65;95266.13;5036522;28;20485;-80
2022/09/04 01:55:44;;;;;;;7.67;6.90;;;;;;;16.68;95.78;95268.44;5036163;28;20842;-82
2022/09/04 01:58:18;;;;;;;7.57;6.87;;;;;;;16.67;95.85;95266.78;5036479;28;20477;-82
2022/09/04 02:00:56;;;;;;;9.63;7.60;;;;;;;16.66;95.60;95260.63;5036365;28;20437;-82
2022/09/04 02:03:30;;;;;;;9.13;8.23;;;;;;;16.63;95.91;95266.22;5036105;28;20450;-82
2022/09/04 02:06:04;;;;;;;10.60;7.50;;;;;;;16.66;95.80;95273.06;5035413;28;20434;-83
2022/09/04 02:08:46;;;;;;;8.63;7.70;;;;;;;16.63;95.66;95271.53;5036074;28;20474;-83
2022/09/04 02:11:17;;;;;;;8.13;6.93;;;;;;;16.64;95.54;95261.75;5035585;28;20450;-82
2022/09/04 02:14:05;;;;;;;11.97;7.30;;;;;;;16.63;95.58;95265.41;5036081;28;20490;-82
2022/09/04 02:16:43;;;;;;;8.50;7.43;;;;;;;16.60;95.68;95244.53;5033671;28;20469;-82
2022/09/04 02:19:26;;;;;;;9.47;7.30;;;;;;;16.62;95.61;95255.78;5035721;28;20862;-82
2022/09/04 02:22:02;;;;;;;9.73;6.90;;;;;;;16.57;95.42;95256.25;5035611;28;20866;-82
2022/09/04 02:24:35;;;;;;;10.30;8.00;;;;;;;16.56;95.46;95262.56;5035657;28;20505;-82
2022/09/04 02:27:07;;;;;;;10.70;8.13;;;;;;;16.55;95.40;95252.94;5035538;28;20453;-82
2022/09/04 02:29:41;;;;;;;8.80;7.90;;;;;;;16.63;95.33;95268.88;5035739;28;20443;-82
2022/09/04 02:32:17;;;;;;;11.27;8.10;;;;;;;16.59;95.06;95256.09;5035499;28;20489;-82
2022/09/04 02:34:52;;;;;;;9.07;7.97;;;;;;;16.64;95.73;95246.69;5035523;28;20478;-82
2022/09/04 02:37:28;;;;;;;9.83;8.00;;;;;;;16.66;95.54;95252.69;5035452;28;20513;-82
2022/09/04 02:40:05;;;;;;;8.77;7.80;;;;;;;16.66;94.96;95250.03;5035375;28;20461;-82
2022/09/04 02:42:44;;;;;;;11.30;7.97;;;;;;;16.60;94.97;95250.66;5034952;28;20454;-82
2022/09/04 02:45:22;;;;;;;9.23;7.90;;;;;;;16.57;95.39;95252.78;5035133;28;20461;-82
2022/09/04 02:47:57;;;;;;;10.10;8.30;;;;;;;16.45;95.95;95256.69;5035282;28;20885;-82
2022/09/04 02:50:39;;;;;;;11.00;8.40;;;;;;;16.36;96.63;95258.44;5035307;28;20445;-82
2022/09/04 02:53:20;;;;;;;12.23;9.30;;;;;;;16.36;96.83;95269.03;5035259;28;20496;-82
2022/09/04 02:56:07;;;;;;;9.87;8.83;;;;;;;16.35;97.37;95272.69;5034955;28;20785;-82
2022/09/04 02:58:46;;;;;;;11.73;9.40;;;;;;;16.38;96.44;95269.72;5034658;28;21654;-82
2022/09/04 03:01:22;;;;;;;11.90;9.50;;;;;;;16.39;96.79;95271.38;5034704;28;20451;-82
2022/09/04 03:04:00;;;;;;;11.00;9.37;;;;;;;16.44;96.92;95271.75;5035010;28;20804;-82
2022/09/04 03:06:50;;;;;;;13.60;9.90;;;;;;;16.41;97.23;95275.53;5034866;28;20469;-82
2022/09/04 03:09:23;;;;;;;11.70;9.23;;;;;;;16.42;97.43;95287.78;5034765;28;20791;-82
2022/09/04 03:11:57;;;;;;;17.53;12.30;;;;;;;16.29;97.54;95287.38;5034406;28;20450;-83
2022/09/04 03:14:33;;;;;;;16.63;12.40;;;;;;;16.11;98.40;95282.13;5035069;28;20446;-82
2022/09/04 03:17:08;;;;;;;18.00;12.53;;;;;;;16.10;99.16;95288.41;5033834;28;20446;-82
2022/09/04 03:19:40;;;;;;;16.43;12.73;;;;;;;16.03;99.07;95275.94;5034408;28;20936;-82
2022/09/04 03:22:13;;;;;;;20.90;13.27;;;;;;;15.97;99.17;95285.31;5034571;28;20922;-82
2022/09/04 03:24:59;;;;;;;21.63;14.07;;;;;;;15.97;99.33;95274.75;5015987;28;20446;-82
2022/09/04 03:27:27;;;;;;;28.27;14.57;;;;;;;15.88;100.00;95280.94;5034295;28;20457;-82
2022/09/04 03:30:02;;;;;;;32.53;15.17;;;;;;;15.84;100.00;95289.34;5034441;28;20921;-82
2022/09/04 03:32:43;;;;;;;45.17;17.20;;;;;;;15.83;100.00;95279.72;5034472;28;20496;-82
2022/09/04 03:35:20;;;;;;;24.70;14.40;;;;;;;15.88;100.00;95282.75;5034621;28;20968;-82
2022/09/04 03:38:12;;;;;;;32.00;16.20;;;;;;;15.88;100.00;95288.88;5034407;28;20449;-82
2022/09/04 03:40:42;;;;;;;33.83;17.00;;;;;;;15.92;100.00;95282.31;5034397;28;20447;-82
2022/09/04 03:43:35;;;;;;;66.87;17.93;;;;;;;15.93;100.00;95286.63;5033712;28;21170;-82
2022/09/04 03:46:14;;;;;;;44.03;17.17;;;;;;;15.97;100.00;95290.63;5034393;28;20523;-82
2022/09/04 03:48:56;;;;;;;102.97;18.40;;;;;;;15.96;100.00;95282.84;5034288;28;20454;-82
2022/09/04 03:51:37;;;;;;;58.53;18.10;;;;;;;15.98;100.00;95294.09;5033987;28;20450;-82
2022/09/04 03:54:11;;;;;;;27.00;14.60;;;;;;;16.01;100.00;95309.69;5033933;28;20486;-83
2022/09/04 03:56:53;;;;;;;28.73;14.27;;;;;;;16.07;100.00;95309.06;5033854;28;21011;-83
2022/09/04 03:59:41;;;;;;;19.83;14.83;;;;;;;16.11;100.00;95321.00;5034000;28;20457;-82
2022/09/04 04:02:18;;;;;;;26.30;14.47;;;;;;;16.15;100.00;95318.88;5033903;28;20454;-82
2022/09/04 04:05:28;;;;;;;33.37;14.10;;;;;;;16.15;100.00;95319.69;5033962;28;20431;-82
2022/09/04 04:08:33;;;;;;;27.23;14.10;;;;;;;15.96;100.00;95320.72;4992292;28;20456;-82
2022/09/04 04:11:14;;;;;;;21.50;13.73;;;;;;;15.83;100.00;95328.19;4934335;29;20922;-82
2022/09/04 04:14:01;;;;;;;19.80;13.57;;;;;;;15.81;100.00;95332.81;4904875;29;21063;-82
2022/09/04 04:16:42;;;;;;;15.67;11.50;;;;;;;15.85;100.00;95352.69;4934155;29;20442;-82
2022/09/04 04:19:21;;;;;;;15.40;10.50;;;;;;;15.94;100.00;95357.09;4933954;29;20453;-81
2022/09/04 04:22:04;;;;;;;9.20;7.37;;;;;;;16.21;100.00;95360.66;4904493;29;20473;-82
2022/09/04 04:24:48;;;;;;;7.47;6.53;;;;;;;16.71;98.53;95366.16;4934216;29;20443;-82
2022/09/04 04:27:34;;;;;;;12.77;7.53;;;;;;;17.26;95.53;95368.47;4917632;29;20455;-82
2022/09/04 04:30:07;;;;;;;6.00;5.40;;;;;;;17.42;91.60;95373.00;4934185;29;20486;-82
2022/09/04 04:33:12;;;;;;;12.23;6.10;;;;;;;17.47;90.02;95376.00;4933992;29;20498;-84
2022/09/04 04:35:48;;;;;;;8.83;7.47;;;;;;;17.46;89.85;95384.97;4933891;29;20999;-83
2022/09/04 04:38:26;;;;;;;12.10;9.37;;;;;;;17.44;90.20;95386.94;4934070;29;20835;-82
2022/09/04 04:41:26;;;;;;;10.90;7.40;;;;;;;17.42;91.07;95383.63;4934230;29;20442;-82
2022/09/04 04:44:07;;;;;;;11.33;8.73;;;;;;;17.42;91.14;95394.25;4885910;29;20464;-82
2022/09/04 04:46:49;;;;;;;8.87;7.30;;;;;;;17.40;92.15;95386.44;4920308;28;20456;-83
2022/09/04 04:49:32;;;;;;;10.10;8.47;;;;;;;17.40;92.88;95375.00;4959814;28;20489;-83
2022/09/04 04:52:17;;;;;;;7.83;7.13;;;;;;;17.74;93.35;95381.09;4991699;28;20444;-82
2022/09/04 04:55:14;;;;;;;11.20;7.90;;;;;;;18.11;91.86;95374.53;4991714;28;20464;-82
2022/09/04 04:57:53;;;;;;;10.33;8.93;;;;;;;18.60;89.62;95375.38;4914930;29;20979;-83
2022/09/04 05:00:28;;;;;;;11.83;8.47;;;;;;;19.15;86.67;95390.63;4914959;29;21050;-83
2022/09/04 05:03:04;;;;;;;7.50;6.80;;;;;;;19.70;82.63;95397.78;4914861;29;20481;-84
2022/09/04 05:05:57;;;;;;;7.67;5.40;;;;;;;20.25;78.73;95405.63;4914943;29;20443;-80
2022/09/04 05:08:36;;;;;;;7.83;6.10;;;;;;;20.69;75.75;95402.31;4899574;29;20837;-83
2022/09/04 05:11:10;;;;;;;10.80;7.27;;;;;;;21.19;73.92;95403.53;4914753;29;20466;-84
2022/09/04 05:13:47;;;;;;;7.83;7.10;;;;;;;21.60;72.66;95394.06;4914631;29;20491;-85
2022/09/04 05:16:22;;;;;;;7.73;6.40;;;;;;;21.86;70.50;95398.09;4916297;29;20454;-82
2022/09/04 05:18:56;;;;;;;7.13;6.50;;;;;;;22.02;70.00;95379.19;4915543;29;20458;-84
2022/09/04 05:21:30;;;;;;;8.60;5.37;;;;;;;22.29;68.85;95379.50;4955048;28;20453;-84
2022/09/04 05:24:02;;;;;;;7.63;5.73;;;;;;;22.60;67.58;95398.72;4972027;28;20931;-84
2022/09/04 05:26:39;;;;;;;5.27;4.77;;;;;;;22.84;66.62;95395.69;4972274;28;20442;-84
2022/09/04 05:29:13;;;;;;;6.30;5.20;;;;;;;23.07;65.91;95397.28;4972085;28;20449;-81
2022/09/04 05:31:51;;;;;;;6.97;6.27;;;;;;;23.38;65.22;95403.06;4972058;28;20453;-84
2022/09/04 05:34:27;;;;;;;5.80;5.20;;;;;;;23.59;63.44;95401.38;5006190;28;20525;-86
2022/09/04 05:37:07;;;;;;;9.27;6.90;;;;;;;23.06;65.22;95388.41;5053248;28;20437;-84
2022/09/04 05:39:46;;;;;;;9.90;7.37;;;;;;;23.13;66.85;95386.66;5053493;28;20426;-81
2022/09/04 05:42:37;;;;;;;9.43;7.17;;;;;;;22.96;67.98;95379.09;5056412;28;20430;-82
2022/09/04 05:45:12;;;;;;;11.10;8.40;;;;;;;23.11;68.12;95391.34;5056485;28;20434;-83
2022/09/04 05:47:47;;;;;;;12.57;10.23;;;;;;;23.34;67.88;95399.13;5056654;28;20946;-84
2022/09/04 05:50:31;;;;;;;15.00;9.60;;;;;;;23.68;66.90;95402.84;5056752;28;20441;-86
2022/09/04 05:53:34;;;;;;;12.50;9.33;;;;;;;23.75;66.33;95398.38;5056390;28;20497;-83
2022/09/04 05:56:15;;;;;;;15.27;9.27;;;;;;;24.03;66.56;95393.75;4994686;28;20439;-84
2022/09/04 05:58:59;;;;;;;11.90;10.57;;;;;;;23.73;65.80;95389.72;4979162;28;20448;-81
2022/09/04 06:01:51;;;;;;;10.60;9.60;;;;;;;23.72;66.77;95388.06;4994763;28;20448;-82
2022/09/04 06:04:55;;;;;;;11.17;10.07;;;;;;;23.83;65.89;95395.50;4994252;28;20437;-82
2022/09/04 06:07:29;;;;;;;12.10;10.60;;;;;;;23.59;66.03;95388.78;4994409;28;20858;-82
2022/09/04 06:20:24;;;;;;;12.90;11.60;;;;;;;21.01;76.13;95372.66;4993368;28;20428;-81
2022/09/04 06:23:19;;;;;;;13.73;11.00;;;;;;;20.80;76.57;95367.19;4994289;28;20456;-81
2022/09/04 06:26:05;;;;;;;13.57;11.60;;;;;;;20.62;77.69;95366.72;4993689;28;21113;-82
2022/09/04 06:29:02;;;;;;;13.50;12.10;;;;;;;20.15;80.49;95365.03;4993921;28;20448;-83
2022/09/04 06:32:13;;;;;;;14.03;12.60;;;;;;;19.84;82.55;95356.25;4962023;28;20454;-83
2022/09/04 06:35:01;;;;;;;17.23;13.33;;;;;;;19.52;84.77;95357.22;4916644;29;20495;-82
2022/09/04 06:37:37;;;;;;;14.53;13.03;;;;;;;19.37;86.01;95363.28;4885545;29;20456;-83
2022/09/04 06:40:20;;;;;;;17.60;13.53;;;;;;;19.24;86.88;95360.31;4917988;29;21209;-82
2022/09/04 06:43:03;;;;;;;17.13;14.63;;;;;;;18.69;89.44;95357.63;4916908;29;20929;-84
2022/09/04 06:45:43;;;;;;;17.40;14.87;;;;;;;18.51;90.34;95358.63;4916707;29;20441;-82
2022/09/04 06:48:23;;;;;;;21.20;15.77;;;;;;;18.22;92.64;95355.63;4885381;29;20464;-83
2022/09/04 06:54:29;;;;;;;17.03;14.20;;;;;;;18.05;95.21;95373.38;4915608;29;20482;-84
2022/09/04 06:57:24;;;;;;;20.07;15.67;;;;;;;17.83;95.32;95374.81;4927248;29;20886;-82
2022/09/04 07:00:10;;;;;;;19.67;15.80;;;;;;;17.38;98.41;95377.81;4919500;29;20873;-81
2022/09/04 07:03:17;;;;;;;19.83;15.50;;;;;;;17.59;98.23;95374.72;4935195;29;20454;-81
2022/09/04 07:05:52;;;;;;;20.60;16.73;;;;;;;17.58;98.47;95363.28;4878785;29;20462;-80
2022/09/04 07:08:32;;;;;;;25.73;17.37;;;;;;;17.85;98.10;95370.19;4906469;29;20470;-81
2022/09/04 07:11:14;;;;;;;21.63;16.67;;;;;;;17.74;98.33;95367.00;4967489;28;20452;-81
2022/09/04 07:13:56;;;;;;;20.93;16.77;;;;;;;18.00;98.27;95364.25;4923847;28;20484;-81
2022/09/04 07:16:38;;;;;;;21.83;16.73;;;;;;;18.26;96.29;95364.94;4972069;28;20456;-81
2022/09/04 07:19:39;;;;;;;16.47;14.70;;;;;;;18.96;94.49;95370.53;4972096;28;20892;-80
2022/09/04 07:22:28;;;;;;;18.83;14.60;;;;;;;19.69;90.96;95367.66;4971953;28;20445;-80
2022/09/04 07:25:12;;;;;;;18.07;14.30;;;;;;;20.42;87.46;95372.53;4971849;28;20453;-81
2022/09/04 07:28:07;;;;;;;13.50;12.10;;;;;;;21.23;84.55;95372.78;4923818;28;20476;-81
2022/09/04 07:30:41;;;;;;;17.13;12.67;;;;;;;21.53;80.60;95369.13;4971586;28;20441;-81
2022/09/04 07:33:15;;;;;;;13.53;12.13;;;;;;;21.55;80.46;95367.09;4971466;28;20887;-81
2022/09/04 07:35:48;;;;;;;14.70;12.73;;;;;;;21.86;79.68;95368.69;4971899;28;20987;-81
2022/09/04 07:38:24;;;;;;;13.27;11.80;;;;;;;21.87;79.44;95368.50;4971627;28;20450;-81
2022/09/04 07:40:57;;;;;;;14.70;13.30;;;;;;;21.93;79.78;95374.94;5030639;28;20992;-81
2022/09/04 07:43:32;;;;;;;15.10;11.70;;;;;;;22.13;79.41;95381.38;5032588;28;20453;-81
2022/09/04 07:46:04;;;;;;;16.73;13.87;;;;;;;22.41;77.54;95389.47;5032794;28;20453;-81
2022/09/04 07:48:39;;;;;;;12.97;11.67;;;;;;;22.53;77.09;95379.91;5032460;28;20803;-81
2022/09/04 07:51:10;;;;;;;15.43;12.17;;;;;;;22.80;76.51;95393.53;5032571;28;20445;-81
2022/09/04 07:54:22;;;;;;;14.63;13.13;;;;;;;22.98;75.25;95393.09;5032413;28;20921;-81
2022/09/04 07:57:13;;;;;;;13.77;12.37;;;;;;;23.07;73.14;95391.94;4932851;29;20456;-81
2022/09/04 08:00:07;;;;;;;12.60;11.30;;;;;;;23.28;73.17;95402.59;4857891;29;20470;-81
2022/09/04 08:02:51;;;;;;;15.00;11.27;;;;;;;23.42;73.65;95403.53;4802219;29;20454;-81
2022/09/04 08:05:24;;;;;;;14.73;12.60;;;;;;;23.54;71.42;95401.94;4802741;29;20880;-81
2022/09/04 08:08:19;;;;;;;14.20;11.83;;;;;;;22.95;73.34;95393.50;4803070;29;20973;-82
2022/09/04 08:10:59;;;;;;;12.27;11.03;;;;;;;23.11;74.14;95401.22;4802991;29;20840;-82
2022/09/04 08:13:54;;;;;;;15.73;12.47;;;;;;;23.27;72.65;95410.81;4802780;29;20464;-81
2022/09/04 08:16:31;;;;;;;12.93;10.00;;;;;;;23.19;73.20;95409.13;4784677;29;20462;-81
2022/09/04 08:19:12;;;;;;;12.10;10.90;;;;;;;23.45;73.43;95413.84;4784697;29;20466;-81
2022/09/04 08:21:42;;;;;;;12.30;10.93;;;;;;;23.56;71.92;95404.44;4784890;29;20471;-81
2022/09/04 08:24:36;;;;;;;11.13;9.50;;;;;;;23.84;71.99;95401.69;4784407;29;20515;-81
2022/09/04 08:27:10;;;;;;;13.03;11.93;;;;;;;23.70;71.05;95406.97;4784370;29;20461;-81
2022/09/04 08:29:56;;;;;;;16.67;11.27;;;;;;;23.52;71.08;95405.84;4784669;29;20459;-81
2022/09/04 08:32:47;;;;;;;11.80;10.30;;;;;;;23.60;72.42;95403.84;4784618;29;20477;-81
2022/09/04 08:35:24;;;;;;;13.57;10.33;;;;;;;23.84;72.16;95413.25;4875781;29;20492;-82
2022/09/04 08:38:10;;;;;;;13.07;11.73;;;;;;;23.99;70.25;95410.41;4923944;29;20469;-82
2022/09/04 08:41:06;;;;;;;13.60;12.20;;;;;;;24.06;69.73;95406.75;4946970;28;20445;-82
2022/09/04 08:44:06;;;;;;;13.43;12.07;;;;;;;24.16;69.89;95400.16;4894451;29;21070;-81
2022/09/04 08:47:11;;;;;;;12.10;10.80;;;;;;;24.30;67.53;95399.22;4894274;29;20976;-82
2022/09/04 08:50:12;;;;;;;13.13;11.70;;;;;;;24.22;69.20;95394.00;4839072;29;20834;-81
2022/09/04 08:53:18;;;;;;;12.90;11.60;;;;;;;24.38;66.99;95396.34;4789504;29;20459;-82
2022/09/04 08:55:57;;;;;;;13.30;10.60;;;;;;;24.62;66.77;95400.31;4857226;29;20835;-81
2022/09/04 08:58:54;;;;;;;11.77;10.53;;;;;;;24.90;65.98;95387.53;4857283;29;20450;-82
2022/09/04 09:01:46;;;;;;;11.40;10.20;;;;;;;25.06;65.21;95391.69;4856983;29;20439;-81
2022/09/04 09:04:46;;;;;;;13.30;11.07;;;;;;;25.00;65.03;95387.16;4802293;29;20458;-82
2022/09/04 09:07:53;;;;;;;13.70;11.90;;;;;;;24.83;64.25;95386.69;4730819;30;20465;-81
2022/09/04 09:10:37;;;;;;;16.33;11.60;;;;;;;24.94;66.47;95371.84;4731299;30;20461;-81
2022/09/04 09:13:29;;;;;;;11.73;10.50;;;;;;;25.14;65.76;95379.91;4716802;30;20628;-82
2022/09/04 09:16:18;;;;;;;10.43;9.30;;;;;;;25.11;63.04;95393.75;4735056;30;20449;-83
2022/09/04 09:19:38;;;;;;;10.93;7.57;;;;;;;25.05;59.89;95378.47;4707098;30;20453;-83
2022/09/04 09:22:10;;;;;;;8.07;7.37;;;;;;;25.19;60.27;95389.00;4701236;30;21428;-83
2022/09/04 09:25:05;;;;;;;7.77;6.97;;;;;;;25.13;57.88;95379.06;4701230;30;20459;-83
2022/09/04 09:28:08;;;;;;;6.27;5.77;;;;;;;25.33;57.12;95365.63;4755485;30;20459;-86
2022/09/04 09:30:52;;;;;;;6.07;5.33;;;;;;;25.29;56.27;95367.91;4769234;30;20470;-83
2022/09/04 09:33:44;;;;;;;6.10;5.60;;;;;;;25.10;55.35;95358.00;4770315;30;20487;-82
2022/09/04 09:36:38;;;;;;;6.57;5.97;;;;;;;25.09;57.90;95359.03;4771511;30;20459;-85
2022/09/04 09:39:42;;;;;;;6.67;5.90;;;;;;;25.00;56.62;95354.94;4771102;30;20495;-86
2022/09/04 09:42:42;;;;;;;6.47;5.87;;;;;;;25.15;58.17;95352.81;4798158;29;20453;-86
2022/09/04 09:45:50;;;;;;;7.80;6.67;;;;;;;25.33;58.04;95339.56;4888679;29;20547;-87
2022/09/04 09:49:06;;;;;;;7.37;6.67;;;;;;;25.04;56.55;95349.97;4843681;29;20452;-88
2022/09/04 09:52:02;;;;;;;6.63;6.03;;;;;;;24.78;58.07;95343.53;4843183;29;20452;-80
2022/09/04 09:55:32;;;;;;;8.83;7.10;;;;;;;25.07;59.42;95344.16;4806121;29;20864;-84
2022/09/04 09:58:52;;;;;;;7.97;7.17;;;;;;;24.97;59.60;95337.34;4842564;29;20653;-81
2022/09/04 10:01:39;;;;;;;7.57;6.93;;;;;;;24.76;60.59;95326.00;4842498;29;20459;-82
2022/09/04 10:04:27;;;;;;;7.50;6.80;;;;;;;24.92;59.57;95310.28;4842745;29;20443;-82
2022/09/04 10:07:28;;;;;;;7.47;6.87;;;;;;;25.15;61.25;95323.28;4854638;29;20480;-83
2022/09/04 10:10:28;;;;;;;7.43;6.80;;;;;;;25.27;58.71;95329.69;4898782;29;20531;-83
2022/09/04 10:13:15;;;;;;;7.60;6.47;;;;;;;25.29;58.40;95332.16;4898823;29;20445;-83
2022/09/04 10:16:18;;;;;;;7.90;6.43;;;;;;;25.42;58.14;95331.28;4913587;29;20555;-88
2022/09/04 10:19:15;;;;;;;7.03;6.43;;;;;;;25.42;58.44;95321.34;4845616;29;20450;-84
2022/09/04 10:22:20;;;;;;;6.63;6.03;;;;;;;25.35;58.42;95317.06;4752387;30;21033;-83
2022/09/04 10:25:22;;;;;;;6.03;5.47;;;;;;;25.30;58.04;95312.31;4764974;30;20462;-83
2022/09/04 10:28:26;;;;;;;6.73;6.13;;;;;;;25.29;59.46;95300.75;4752878;30;20513;-83
2022/09/04 10:31:26;;;;;;;6.90;6.30;;;;;;;25.38;60.03;95303.19;4733333;29;20467;-83
2022/09/04 10:34:26;;;;;;;9.90;7.40;;;;;;;25.48;58.17;95304.41;4805519;29;21310;-83
2022/09/04 10:37:09;;;;;;;6.77;6.07;;;;;;;25.45;58.60;95301.34;4805613;29;20464;-83
2022/09/04 10:42:54;;;;;;;6.40;5.90;;;;;;;25.39;58.27;95294.09;4805900;29;20925;-82
2022/09/04 10:45:26;;;;;;;7.73;5.67;;;;;;;25.30;58.38;95302.38;4805298;29;20456;-82
2022/09/04 10:48:21;;;;;;;7.90;7.20;;;;;;;25.21;57.88;95290.22;4805801;29;20461;-83
2022/09/04 10:51:21;;;;;;;8.60;7.70;;;;;;;25.22;57.72;95297.25;4817875;29;20971;-85
2022/09/04 10:54:32;;;;;;;7.03;6.33;;;;;;;25.26;58.59;95289.59;4833805;29;20461;-82
2022/09/04 10:57:16;;;;;;;7.60;6.80;;;;;;;25.33;59.54;95282.34;4805473;29;20522;-83
2022/09/04 11:00:04;;;;;;;7.27;6.57;;;;;;;25.27;58.35;95285.88;4889257;29;20465;-83
2022/09/04 11:03:04;;;;;;;6.67;6.07;;;;;;;25.33;59.84;95291.22;4903862;29;20849;-83
2022/09/04 11:06:01;;;;;;;6.67;5.97;;;;;;;25.34;60.28;95281.28;4973461;28;20456;-82
2022/09/04 11:09:09;;;;;;;7.10;6.50;;;;;;;25.48;60.25;95268.66;4917216;29;20550;-84
2022/09/04 11:11:59;;;;;;;7.07;6.47;;;;;;;25.20;59.21;95259.03;4906025;29;20465;-84
2022/09/04 11:14:53;;;;;;;6.70;6.10;;;;;;;25.24;57.59;95264.81;4898033;29;20492;-84
2022/09/04 11:17:48;;;;;;;14.90;5.70;;;;;;;25.40;59.84;95263.50;4903908;29;20508;-83
2022/09/04 11:21:06;;;;;;;9.50;7.07;;;;;;;25.45;58.08;95267.22;4859237;29;21094;-82
2022/09/04 11:24:21;;;;;;;6.33;5.77;;;;;;;25.55;58.98;95261.38;4859811;29;20490;-82
2022/09/04 11:27:38;;;;;;;7.20;6.50;;;;;;;25.65;57.40;95250.97;4841238;29;20459;-83
2022/09/04 11:30:16;;;;;;;6.20;5.70;;;;;;;25.57;56.34;95248.56;4839691;29;20495;-83
2022/09/04 11:33:14;;;;;;;6.90;6.30;;;;;;;25.83;57.61;95247.63;4873623;29;20453;-83
2022/09/04 11:36:08;;;;;;;6.57;5.97;;;;;;;25.63;56.58;95253.06;4895383;29;20957;-82
2022/09/04 11:39:11;;;;;;;6.70;6.13;;;;;;;25.63;56.86;95253.06;4894635;29;20437;-81
2022/09/04 11:42:19;;;;;;;8.67;5.60;;;;;;;25.76;56.35;95253.03;4895364;29;20979;-83
2022/09/04 11:45:27;;;;;;;7.03;6.33;;;;;;;25.80;56.64;95240.81;4899821;29;21006;-83
2022/09/04 11:48:36;;;;;;;8.00;5.80;;;;;;;25.90;55.94;95237.66;4942612;29;20537;-83
2022/09/04 11:51:33;;;;;;;5.00;4.60;;;;;;;25.91;53.37;95234.75;4952064;29;20448;-83
2022/09/04 11:54:41;;;;;;;5.53;5.10;;;;;;;26.00;54.25;95229.91;4951771;29;20556;-83
2022/09/04 11:57:17;;;;;;;5.83;5.30;;;;;;;25.98;55.42;95233.88;4958831;28;20535;-84
2022/09/04 12:00:11;;;;;;;7.93;5.10;;;;;;;26.04;55.38;95222.25;4977195;28;20449;-84
2022/09/04 12:03:30;;;;;;;5.53;5.10;;;;;;;26.03;54.82;95223.31;4990469;28;20573;-86
2022/09/04 12:06:20;;;;;;;6.17;5.67;;;;;;;25.98;54.86;95220.41;4990646;28;20939;-85
2022/09/04 12:09:04;;;;;;;6.10;5.33;;;;;;;26.01;54.63;95220.81;4990570;28;20494;-85
2022/09/04 12:12:13;;;;;;;6.50;5.83;;;;;;;26.02;55.01;95210.88;4990886;28;20491;-85
2022/09/04 12:14:59;;;;;;;5.87;5.37;;;;;;;26.00;55.65;95211.09;4971227;28;20871;-84
2022/09/04 12:17:55;;;;;;;6.43;5.83;;;;;;;25.95;56.59;95202.84;4972440;28;20461;-85
2022/09/04 12:20:48;;;;;;;5.70;5.20;;;;;;;25.99;54.62;95204.06;4972485;28;20449;-86
2022/09/04 12:23:42;;;;;;;5.80;5.30;;;;;;;25.99;53.95;95205.94;4972263;28;20460;-85
2022/09/04 12:26:31;;;;;;;5.30;4.80;;;;;;;26.00;54.36;95199.50;4914676;29;20456;-85
2022/09/04 12:29:28;;;;;;;5.90;5.40;;;;;;;25.98;55.71;95201.59;4914971;29;20452;-84
2022/09/04 12:32:31;;;;;;;6.63;6.03;;;;;;;25.99;54.32;95197.84;4916859;29;20447;-85
2022/09/04 12:35:25;;;;;;;6.10;5.60;;;;;;;26.09;55.42;95200.91;4806665;29;20508;-84
2022/09/04 12:38:25;;;;;;;6.50;5.90;;;;;;;26.17;53.93;95196.06;4803750;29;20549;-84
2022/09/04 12:41:02;;;;;;;6.60;6.00;;;;;;;26.20;53.11;95198.31;4768276;29;20460;-84
2022/09/04 12:43:41;;;;;;;5.40;5.00;;;;;;;26.21;54.90;95199.16;4768361;29;20443;-84
2022/09/04 12:46:20;;;;;;;5.90;5.40;;;;;;;26.25;53.87;95208.41;4767942;30;20642;-84
2022/09/04 12:49:02;;;;;;;7.03;6.40;;;;;;;26.25;54.13;95203.88;4768768;30;20477;-84
2022/09/04 12:51:42;;;;;;;6.10;5.60;;;;;;;26.31;52.89;95194.13;4779968;30;20461;-84
2022/09/04 12:54:32;;;;;;;6.40;5.90;;;;;;;26.35;55.25;95200.72;4789544;29;20548;-83
2022/09/04 12:57:24;;;;;;;7.27;5.70;;;;;;;26.38;54.81;95192.22;4789038;30;20513;-84
2022/09/04 13:00:04;;;;;;;6.47;5.80;;;;;;;26.48;55.54;95189.84;4789135;30;20560;-83
2022/09/04 13:02:45;;;;;;;6.70;6.10;;;;;;;26.47;53.68;95184.66;4796966;29;20462;-84
2022/09/04 13:05:33;;;;;;;6.67;6.07;;;;;;;26.47;53.80;95180.13;4860999;29;20459;-83
2022/09/04 13:08:13;;;;;;;5.30;4.90;;;;;;;26.43;52.93;95188.84;4860920;29;20446;-83
2022/09/04 13:10:48;;;;;;;7.47;6.30;;;;;;;26.37;53.61;95187.88;4860884;29;20481;-84